You are not logged in, Click here to log in
機場資訊:ZGGG Welcome to Taiwan Airways 台灣虛擬航空
ICAO: ZGGG Country: 中國廣東省省會廣州市
Latitude: 23.3959 Longitude: 113.308
Total Arrivals: 66 Total Departures: 76
Latest Arrival: FS56 (ZUUU-ZGGG)CHU. CHUHAO Latest Departure: CA4306 (ZGGG-ZUUU)CHU. CHUHAO
Scenery:
METAR : ZGGG 170400Z 15003MPS 120V200 9000 NSC 27/16 Q1015 NOSIG

廣州白雲國際機場CAN